首页
METAR-TAF:

METAR-TAF

机场 :

滑鐵盧區國際機場

滑铁卢, 安大略省, 加拿大

纬度: 43-28N, 经度: 080-23W, 海拔: 317米

当前天气观测

该预报发布于35分钟前的00:00 UTC
风速9节,风向西转西南
温度 23°C
湿度 53%
气压 1012 hPa
能見度: 14.5公里
天空无云

METAR: CYKF 260000Z AUTO 25009KT 9SM CLR 23/13 A2989 RMK SLP119 DENSITY ALT 2200FT

时间: 20:35 (00:35 UTC)

预报

该预报发布于2小时和25分钟前的22:10 UTC
预报有效从25日的 22点(UTC)到 26日的 08点(UTC)
风速10节,风向西转西南,有时为20节阵风
能見度: 10公里
少量云层高于4000英尺
成为
从 25日的 22点(UTC)到 25日的 24点(UTC)
风速10节,风向西转西南
从 26日的 0500点(UTC)
风速10节,风向西转西南
能見度: 10公里
多云层高于5000英尺
短暂存在
从 26日的 05点(UTC)到 26日的 08点(UTC)
能見度: 10公里
散云层高于1000英尺
多云层高于4000英尺
小阵雨

TAF: CYKF 252210Z 2522/2608 24010G20KT P6SM FEW040 BECMG 2522/2524 25010KT FM260500 24010KT P6SM BKN050 TEMPO 2605/2608 P6SM -SHRA SCT010 BKN040 RMK FCST BASED ON AUTO OBS. NXT FCST BY 260200Z

超过4000个机场的气象观测和天气预报(METAR&TAF报告)。

可查询的气象台以黄色和红色小点在地图上表示。

将鼠标移到小点上方,可查看气象台名称。

然后点击查看天气观测和预报。

如需切换地图:点击带黑十字的绿色按钮放大地图;点击带横线的绿色按钮缩小地图;或者点击绿色箭头查看邻近地区的地图。


METAR-TAF: